createdAt,value
2022-11-11T00:02:07.310Z,34.50
2022-11-11T00:05:28.303Z,36.17
2022-11-11T00:08:49.630Z,38.50
2022-11-11T00:12:10.569Z,40.72
2022-11-11T00:15:31.693Z,39.40
2022-11-11T00:19:10.844Z,36.78
2022-11-11T00:22:50.157Z,42.50
2022-11-11T00:26:37.970Z,45.93
2022-11-11T00:29:54.993Z,41.25
2022-11-11T00:33:15.793Z,43.83
2022-11-11T00:36:36.397Z,39.10
2022-11-11T00:39:57.163Z,49.83
2022-11-11T00:43:17.997Z,45.33
2022-11-11T00:46:57.133Z,45.47
2022-11-11T00:50:42.506Z,43.72
2022-11-11T00:54:03.441Z,46.27
2022-11-11T00:57:24.235Z,40.87
2022-11-11T01:00:45.513Z,47.92
2022-11-11T01:04:06.559Z,44.05
2022-11-11T01:07:27.885Z,43.05
2022-11-11T01:10:49.719Z,45.80
2022-11-11T01:14:11.106Z,46.03
2022-11-11T01:17:32.423Z,43.03
2022-11-11T01:20:59.782Z,38.30
2022-11-11T01:24:21.230Z,40.80
2022-11-11T01:27:42.408Z,40.87
2022-11-11T01:31:09.189Z,44.10
2022-11-11T01:34:30.331Z,46.33
2022-11-11T01:37:51.427Z,46.50
2022-11-11T01:41:32.967Z,42.37
2022-11-11T01:44:54.331Z,42.88
2022-11-11T01:49:02.040Z,47.38
2022-11-11T01:52:31.983Z,41.93
2022-11-11T01:55:54.173Z,40.17
2022-11-11T01:59:17.930Z,43.05
2022-11-11T02:02:43.624Z,43.15
2022-11-11T02:06:04.897Z,42.10
2022-11-11T02:09:26.698Z,39.37
2022-11-11T02:13:06.108Z,40.05
2022-11-11T02:16:27.490Z,41.08
2022-11-11T02:19:57.953Z,42.03
2022-11-11T02:23:37.592Z,37.37
2022-11-11T02:27:00.226Z,40.90
2022-11-11T02:30:21.745Z,39.47
2022-11-11T02:33:42.821Z,41.60
2022-11-11T02:37:06.787Z,44.83
2022-11-11T02:40:37.254Z,48.78
2022-11-11T02:43:58.141Z,37.25
2022-11-11T02:47:19.186Z,40.35
2022-11-11T02:50:40.039Z,40.80
2022-11-11T02:54:01.277Z,43.63
2022-11-11T02:57:23.013Z,42.92
2022-11-11T03:00:44.353Z,47.72
2022-11-11T03:04:06.246Z,42.90
2022-11-11T03:07:27.479Z,45.17
2022-11-11T03:10:48.818Z,40.43
2022-11-11T03:14:10.260Z,42.53
2022-11-11T03:17:40.144Z,42.50
2022-11-11T03:21:54.388Z,43.63
2022-11-11T03:25:06.502Z,41.10
2022-11-11T03:28:27.583Z,44.67
2022-11-11T03:31:50.719Z,42.35
2022-11-11T03:35:11.561Z,49.05
2022-11-11T03:38:32.647Z,50.93
2022-11-11T03:41:53.729Z,50.85
2022-11-11T03:45:14.842Z,45.95
2022-11-11T03:48:35.779Z,45.03
2022-11-11T03:51:56.518Z,40.00
2022-11-11T03:55:17.493Z,49.83
2022-11-11T03:58:38.241Z,42.83
2022-11-11T04:02:17.387Z,31.87
2022-11-11T04:05:56.817Z,30.15
2022-11-11T04:09:36.076Z,31.05
2022-11-11T04:13:18.104Z,30.58
2022-11-11T04:16:39.143Z,33.00
2022-11-11T04:20:18.342Z,48.38
2022-11-11T04:23:39.313Z,75.57
2022-11-11T04:27:02.343Z,51.85
2022-11-11T04:30:23.058Z,34.27
2022-11-11T04:33:43.772Z,37.40
2022-11-11T04:37:04.655Z,40.40
2022-11-11T04:40:43.868Z,39.33
2022-11-11T04:44:23.998Z,34.70
2022-11-11T04:47:53.406Z,30.97
2022-11-11T04:51:14.490Z,31.50
2022-11-11T04:54:55.148Z,34.85
2022-11-11T04:58:18.027Z,33.13
2022-11-11T05:01:57.629Z,33.50
2022-11-11T05:05:18.329Z,34.53
2022-11-11T05:08:56.431Z,28.23
2022-11-11T05:12:17.670Z,39.05
2022-11-11T05:15:58.965Z,40.23
2022-11-11T05:19:38.722Z,35.53
2022-11-11T05:22:59.452Z,30.35
2022-11-11T05:26:20.435Z,32.28
2022-11-11T05:29:41.460Z,26.50
2022-11-11T05:33:02.944Z,28.07
2022-11-11T05:36:24.102Z,62.75
2022-11-11T05:39:45.900Z,50.95
2022-11-11T05:43:06.915Z,44.40
2022-11-11T05:46:28.051Z,49.10
2022-11-11T05:49:48.795Z,46.65
2022-11-11T05:53:09.717Z,38.30
2022-11-11T05:56:30.736Z,36.70
2022-11-11T05:59:51.657Z,40.60
2022-11-11T06:03:13.185Z,39.58
2022-11-11T06:06:35.843Z,34.92
2022-11-11T06:10:17.299Z,34.03
2022-11-11T06:13:38.476Z,33.67
2022-11-11T06:16:59.549Z,32.13
2022-11-11T06:20:20.942Z,30.98
2022-11-11T06:23:42.029Z,31.63
2022-11-11T06:27:02.811Z,27.00
2022-11-11T06:30:51.816Z,29.80
2022-11-11T06:34:04.758Z,37.40
2022-11-11T06:37:25.833Z,40.75
2022-11-11T06:40:47.015Z,32.97
2022-11-11T06:44:07.938Z,35.07
2022-11-11T06:47:29.125Z,33.28
2022-11-11T06:50:50.986Z,42.17
2022-11-11T06:54:12.045Z,44.78
2022-11-11T06:57:33.845Z,50.67
2022-11-11T07:00:54.823Z,50.17
2022-11-11T07:04:16.266Z,50.42
2022-11-11T07:07:37.715Z,50.55
2022-11-11T07:11:03.484Z,47.85
2022-11-11T07:14:28.233Z,69.47
2022-11-11T07:17:49.165Z,60.10
2022-11-11T07:21:09.961Z,51.03
2022-11-11T07:24:30.932Z,51.00
2022-11-11T07:27:57.804Z,47.13
2022-11-11T07:31:20.206Z,45.20
2022-11-11T07:34:41.448Z,43.30
2022-11-11T07:38:03.196Z,38.47
2022-11-11T07:41:24.592Z,31.63
2022-11-11T07:44:49.330Z,37.38
2022-11-11T07:48:11.046Z,35.13
2022-11-11T07:51:32.400Z,38.40
2022-11-11T07:54:53.601Z,30.63
2022-11-11T07:58:14.779Z,37.03
2022-11-11T08:01:36.573Z,35.05
2022-11-11T08:04:58.178Z,35.30
2022-11-11T08:08:25.475Z,49.22
2022-11-11T08:12:05.817Z,51.13
2022-11-11T08:15:27.083Z,39.10
2022-11-11T08:18:48.493Z,38.15
2022-11-11T08:22:10.014Z,41.87
2022-11-11T08:25:32.003Z,39.88
2022-11-11T08:28:53.773Z,39.95
2022-11-11T08:32:15.325Z,37.45
2022-11-11T08:35:36.470Z,36.88
2022-11-11T08:38:57.814Z,31.53
2022-11-11T08:42:19.193Z,38.13
2022-11-11T08:45:40.635Z,30.33
2022-11-11T08:49:02.449Z,30.02
2022-11-11T08:52:23.610Z,33.72
2022-11-11T08:55:45.412Z,30.90
2022-11-11T08:59:06.822Z,30.15
2022-11-11T09:02:28.050Z,31.25
2022-11-11T09:05:49.391Z,31.45
2022-11-11T09:09:10.596Z,23.75
2022-11-11T09:12:33.298Z,20.43
2022-11-11T09:15:55.327Z,18.25
2022-11-11T09:19:16.145Z,22.23
2022-11-11T09:22:43.263Z,21.98
2022-11-11T09:26:04.350Z,23.05
2022-11-11T09:29:25.543Z,23.50
2022-11-11T09:33:12.731Z,23.65
2022-11-11T09:36:39.427Z,28.23
2022-11-11T09:40:01.466Z,24.67
2022-11-11T09:43:29.966Z,23.52
2022-11-11T09:47:39.955Z,19.30
2022-11-11T09:51:05.618Z,21.00
2022-11-11T09:54:50.440Z,23.63
2022-11-11T09:58:35.047Z,23.60
2022-11-11T10:01:59.606Z,19.20
2022-11-11T10:05:31.104Z,18.27
2022-11-11T10:09:02.672Z,18.08
2022-11-11T10:12:43.371Z,21.50
2022-11-11T10:16:26.245Z,18.52
2022-11-11T10:20:14.235Z,20.20
2022-11-11T10:23:37.699Z,20.47
2022-11-11T10:27:04.866Z,16.10
2022-11-11T10:30:32.036Z,17.60
2022-11-11T10:34:02.955Z,17.50
2022-11-11T10:37:31.402Z,13.25
2022-11-11T10:40:59.780Z,11.87
2022-11-11T10:44:27.729Z,11.27
2022-11-11T10:48:07.602Z,15.65
2022-11-11T10:51:37.191Z,10.98
2022-11-11T10:55:24.080Z,11.82
2022-11-11T10:58:48.344Z,9.23
2022-11-11T11:02:23.648Z,11.80
2022-11-11T11:06:12.364Z,12.45
2022-11-11T11:10:11.077Z,8.07
2022-11-11T11:13:55.242Z,9.88
2022-11-11T11:17:47.027Z,8.43
2022-11-11T11:21:21.706Z,8.15
2022-11-11T11:25:20.434Z,12.18
2022-11-11T11:29:46.841Z,12.98
2022-11-11T11:33:15.400Z,12.60
2022-11-11T11:36:46.607Z,12.37
2022-11-11T11:40:15.077Z,9.52
2022-11-11T11:43:48.123Z,15.35
2022-11-11T11:47:29.537Z,9.05
2022-11-11T11:50:58.926Z,10.77
2022-11-11T11:54:50.933Z,9.77
2022-11-11T11:58:47.036Z,9.40
2022-11-11T12:02:57.349Z,7.47
2022-11-11T12:07:29.343Z,6.53
2022-11-11T12:11:24.476Z,16.48
2022-11-11T12:15:29.350Z,7.60
2022-11-11T12:20:09.020Z,10.20
2022-11-11T12:24:10.378Z,8.73
2022-11-11T12:28:02.678Z,11.43
2022-11-11T12:31:36.840Z,15.07
2022-11-11T12:35:42.456Z,15.23
2022-11-11T12:43:54.855Z,13.10
2022-11-11T12:47:43.769Z,13.90
2022-11-11T12:51:59.559Z,11.50
2022-11-11T12:55:32.807Z,15.70
2022-11-11T13:00:18.600Z,15.90
2022-11-11T13:08:32.000Z,17.40
2022-11-11T13:16:28.319Z,19.43
2022-11-11T13:20:04.961Z,21.17
2022-11-11T13:24:27.732Z,19.58
2022-11-11T13:28:49.532Z,20.13
2022-11-11T13:32:31.576Z,16.98
2022-11-11T13:36:24.741Z,17.30
2022-11-11T13:39:51.969Z,19.35
2022-11-11T13:43:34.173Z,17.67
2022-11-11T13:47:02.879Z,16.17
2022-11-11T13:50:36.352Z,14.45
2022-11-11T13:53:59.582Z,15.60
2022-11-11T13:57:23.774Z,17.30
2022-11-11T14:00:44.764Z,17.90
2022-11-11T14:04:08.342Z,19.42
2022-11-11T14:07:57.514Z,16.42
2022-11-11T14:11:24.254Z,18.50
2022-11-11T14:14:50.443Z,20.10
2022-11-11T14:18:32.003Z,22.85
2022-11-11T14:22:16.910Z,20.83
2022-11-11T14:25:37.751Z,21.65
2022-11-11T14:29:03.775Z,21.20
2022-11-11T14:32:38.242Z,18.92
2022-11-11T14:36:07.025Z,26.20
2022-11-11T14:39:45.079Z,19.58
2022-11-11T14:43:41.680Z,24.52
2022-11-11T14:47:02.630Z,27.93
2022-11-11T14:50:32.408Z,21.20
2022-11-11T14:53:54.054Z,25.75
2022-11-11T14:57:30.626Z,20.48
2022-11-11T15:01:03.686Z,25.08
2022-11-11T15:04:26.836Z,25.53
2022-11-11T15:08:00.249Z,26.15
2022-11-11T15:11:37.012Z,32.28
2022-11-11T15:15:25.893Z,35.50
2022-11-11T15:18:54.769Z,49.00
2022-11-11T15:22:51.180Z,72.70
2022-11-11T15:26:47.346Z,93.18
2022-11-11T15:30:19.145Z,61.40
2022-11-11T15:33:59.482Z,92.53
2022-11-11T15:37:22.648Z,107.35
2022-11-11T15:40:49.857Z,258.57
2022-11-11T15:44:32.494Z,132.90
2022-11-11T15:47:54.330Z,102.38
2022-11-11T15:51:38.758Z,155.00
2022-11-11T15:55:02.249Z,124.50
2022-11-11T15:58:26.398Z,112.53
2022-11-11T16:01:47.765Z,54.53
2022-11-11T16:05:22.950Z,81.65
2022-11-11T16:08:53.580Z,80.82
2022-11-11T16:12:24.517Z,64.53
2022-11-11T16:15:56.918Z,84.47
2022-11-11T16:19:26.016Z,99.72
2022-11-11T16:22:48.850Z,128.80
2022-11-11T16:26:10.708Z,78.00
2022-11-11T16:29:38.876Z,85.28
2022-11-11T16:32:59.834Z,67.33
2022-11-11T16:36:20.993Z,88.43
2022-11-11T16:39:43.487Z,110.05
2022-11-11T16:43:22.721Z,107.63
2022-11-11T16:46:44.108Z,72.80
2022-11-11T16:50:10.740Z,50.37
2022-11-11T16:53:36.023Z,56.97
2022-11-11T16:56:59.567Z,125.07
2022-11-11T17:00:24.229Z,78.97
2022-11-11T17:03:54.388Z,68.82
2022-11-11T17:07:35.795Z,97.70
2022-11-11T17:10:56.903Z,76.63
2022-11-11T17:14:18.044Z,147.30
2022-11-11T17:17:40.677Z,105.00
2022-11-11T17:21:02.570Z,100.43
2022-11-11T17:24:23.834Z,121.23
2022-11-11T17:27:45.345Z,94.57
2022-11-11T17:31:08.695Z,101.13
2022-11-11T17:34:29.889Z,135.38
2022-11-11T17:37:51.157Z,129.02
2022-11-11T17:41:15.682Z,170.80
2022-11-11T17:44:36.810Z,127.85
2022-11-11T17:47:57.808Z,117.32
2022-11-11T17:51:19.284Z,131.93
2022-11-11T17:54:40.325Z,127.47
2022-11-11T17:58:01.634Z,115.43
2022-11-11T18:01:22.950Z,114.95
2022-11-11T18:04:44.087Z,122.10
2022-11-11T18:08:05.586Z,128.20
2022-11-11T18:11:26.330Z,141.85
2022-11-11T18:14:47.109Z,183.53
2022-11-11T18:18:08.159Z,177.65
2022-11-11T18:21:29.619Z,141.27
2022-11-11T18:24:50.895Z,153.40
2022-11-11T18:28:11.924Z,138.63
2022-11-11T18:31:33.833Z,161.17
2022-11-11T18:34:54.712Z,155.45
2022-11-11T18:38:15.811Z,148.95
2022-11-11T18:41:37.031Z,167.73
2022-11-11T18:44:58.368Z,183.38
2022-11-11T18:48:19.684Z,169.13
2022-11-11T18:51:41.613Z,156.73
2022-11-11T18:55:02.769Z,162.07
2022-11-11T18:58:24.074Z,120.22
2022-11-11T19:01:47.284Z,100.28
2022-11-11T19:05:12.048Z,90.57
2022-11-11T19:08:35.361Z,91.90
2022-11-11T19:11:56.898Z,98.05
2022-11-11T19:15:18.273Z,104.32
2022-11-11T19:18:40.210Z,110.72
2022-11-11T19:22:01.648Z,90.60
2022-11-11T19:25:22.598Z,94.85
2022-11-11T19:28:43.700Z,79.32
2022-11-11T19:32:05.508Z,95.28
2022-11-11T19:35:27.007Z,95.97
2022-11-11T19:38:48.773Z,112.60
2022-11-11T19:42:10.299Z,107.07
2022-11-11T19:45:36.635Z,107.75
2022-11-11T19:48:59.545Z,103.72
2022-11-11T19:52:20.597Z,113.33
2022-11-11T19:55:41.848Z,105.30
2022-11-11T19:59:03.536Z,100.13
2022-11-11T20:02:24.289Z,96.57
2022-11-11T20:05:45.133Z,92.38
2022-11-11T20:09:07.776Z,90.97
2022-11-11T20:12:28.696Z,86.27
2022-11-11T20:15:49.619Z,92.93
2022-11-11T20:19:10.847Z,93.60
2022-11-11T20:22:31.786Z,100.95
2022-11-11T20:25:54.114Z,120.00
2022-11-11T20:29:15.598Z,103.93
2022-11-11T20:32:36.663Z,98.75
2022-11-11T20:36:02.188Z,106.50
2022-11-11T20:39:23.474Z,121.22
2022-11-11T20:42:44.582Z,142.77
2022-11-11T20:46:25.956Z,124.30
2022-11-11T20:49:47.651Z,125.07
2022-11-11T20:53:08.358Z,132.30
2022-11-11T20:56:29.616Z,123.30
2022-11-11T20:59:50.751Z,172.27
2022-11-11T21:03:11.972Z,130.30
2022-11-11T21:06:34.933Z,128.07
2022-11-11T21:09:56.146Z,144.50
2022-11-11T21:13:17.644Z,118.13
2022-11-11T21:16:38.833Z,114.80
2022-11-11T21:20:00.020Z,130.90
2022-11-11T21:23:21.271Z,117.53
2022-11-11T21:26:42.286Z,112.18
2022-11-11T21:30:03.513Z,95.53
2022-11-11T21:33:24.852Z,78.73
2022-11-11T21:36:46.034Z,63.45
2022-11-11T21:40:07.721Z,63.80
2022-11-11T21:43:28.711Z,53.53
2022-11-11T21:46:49.722Z,54.43
2022-11-11T21:50:10.865Z,40.97
2022-11-11T21:53:32.378Z,37.17
2022-11-11T21:56:54.606Z,31.85
2022-11-11T22:00:15.849Z,32.53
2022-11-11T22:03:38.449Z,37.77
2022-11-11T22:06:59.343Z,31.48
2022-11-11T22:10:20.156Z,43.95
2022-11-11T22:13:45.227Z,60.90
2022-11-11T22:17:06.406Z,46.08
2022-11-11T22:20:27.208Z,44.10
2022-11-11T22:23:52.816Z,41.75
2022-11-11T22:27:13.990Z,36.00
2022-11-11T22:30:34.816Z,28.05
2022-11-11T22:34:00.153Z,23.03
2022-11-11T22:37:21.589Z,25.83
2022-11-11T22:40:42.459Z,26.05
2022-11-11T22:44:03.583Z,24.70
2022-11-11T22:47:24.357Z,24.60
2022-11-11T22:50:45.266Z,26.33
2022-11-11T22:54:06.843Z,33.70
2022-11-11T22:57:30.762Z,118.30
2022-11-11T23:00:51.693Z,111.90
2022-11-11T23:04:12.832Z,71.20
2022-11-11T23:07:33.594Z,43.97
2022-11-11T23:10:54.588Z,34.55
2022-11-11T23:14:25.758Z,30.05
2022-11-11T23:17:51.278Z,25.38
2022-11-11T23:21:17.203Z,31.97
2022-11-11T23:24:38.067Z,38.40
2022-11-11T23:27:59.084Z,39.22
2022-11-11T23:31:47.792Z,34.65
2022-11-11T23:35:22.180Z,43.77
2022-11-11T23:38:44.852Z,48.55
2022-11-11T23:42:06.289Z,40.97
2022-11-11T23:45:27.373Z,43.78
2022-11-11T23:48:48.483Z,39.72
2022-11-11T23:52:09.494Z,43.37
2022-11-11T23:55:30.656Z,40.20
2022-11-11T23:58:51.439Z,47.15
